createdAt,value
2022-08-15T00:00:25.783Z,64.38
2022-08-15T00:03:20.658Z,64.96
2022-08-15T00:06:39.623Z,64.39
2022-08-15T00:09:15.133Z,65.08
2022-08-15T00:11:59.534Z,65.03
2022-08-15T00:14:43.038Z,65.30
2022-08-15T00:17:46.185Z,65.26
2022-08-15T00:20:33.489Z,64.92
2022-08-15T00:23:18.465Z,65.53
2022-08-15T00:26:16.645Z,66.63
2022-08-15T00:29:07.648Z,65.27
2022-08-15T00:31:54.595Z,66.03
2022-08-15T00:34:40.441Z,66.01
2022-08-15T00:37:23.550Z,66.08
2022-08-15T00:40:18.531Z,65.95
2022-08-15T00:43:04.902Z,66.60
2022-08-15T00:45:56.092Z,66.59
2022-08-15T00:48:45.497Z,66.37
2022-08-15T00:51:33.657Z,66.51
2022-08-15T00:54:55.810Z,66.92
2022-08-15T00:57:58.945Z,66.63
2022-08-15T01:00:38.383Z,66.21
2022-08-15T01:03:34.682Z,66.34
2022-08-15T01:06:38.474Z,66.28
2022-08-15T01:09:21.700Z,66.41
2022-08-15T01:12:11.885Z,66.25
2022-08-15T01:15:11.159Z,66.37
2022-08-15T01:17:56.260Z,66.50
2022-08-15T01:20:40.922Z,66.26
2022-08-15T01:23:52.835Z,66.20
2022-08-15T01:26:38.920Z,66.00
2022-08-15T01:29:28.605Z,66.05
2022-08-15T01:32:11.721Z,66.14
2022-08-15T01:34:55.299Z,65.99
2022-08-15T01:37:56.880Z,66.11
2022-08-15T01:40:54.565Z,66.29
2022-08-15T01:43:54.437Z,66.63
2022-08-15T01:46:43.606Z,66.84
2022-08-15T01:49:34.951Z,66.93
2022-08-15T01:52:58.184Z,67.09
2022-08-15T01:55:44.395Z,67.06
2022-08-15T01:58:31.314Z,66.84
2022-08-15T02:01:21.111Z,67.18
2022-08-15T02:04:24.271Z,66.80
2022-08-15T02:07:17.139Z,66.97
2022-08-15T02:10:21.579Z,66.73
2022-08-15T02:13:12.194Z,67.11
2022-08-15T02:15:58.139Z,67.23
2022-08-15T02:18:43.124Z,66.97
2022-08-15T02:21:37.032Z,67.30
2022-08-15T02:24:24.518Z,67.32
2022-08-15T02:27:10.841Z,67.42
2022-08-15T02:29:54.719Z,67.91
2022-08-15T02:32:40.293Z,68.13
2022-08-15T02:35:26.353Z,68.16
2022-08-15T02:38:19.007Z,68.06
2022-08-15T02:41:03.817Z,68.36
2022-08-15T02:43:48.120Z,68.35
2022-08-15T02:46:38.270Z,68.46
2022-08-15T02:49:47.657Z,68.54
2022-08-15T02:52:35.168Z,68.60
2022-08-15T02:55:19.914Z,68.35
2022-08-15T02:58:06.622Z,68.49
2022-08-15T03:00:51.137Z,68.54
2022-08-15T03:03:34.385Z,68.41
2022-08-15T03:06:31.075Z,68.81
2022-08-15T03:09:18.626Z,68.84
2022-08-15T03:12:30.248Z,68.70
2022-08-15T03:15:15.358Z,69.03
2022-08-15T03:17:58.669Z,68.71
2022-08-15T03:20:46.262Z,69.17
2022-08-15T03:23:41.479Z,69.31
2022-08-15T03:26:47.259Z,68.98
2022-08-15T03:29:34.244Z,69.03
2022-08-15T03:32:32.672Z,69.22
2022-08-15T03:35:19.282Z,69.23
2022-08-15T03:38:05.567Z,69.45
2022-08-15T03:40:52.638Z,69.39
2022-08-15T03:43:40.190Z,69.62
2022-08-15T03:46:25.597Z,69.71
2022-08-15T03:49:12.086Z,69.85
2022-08-15T03:51:56.905Z,69.75
2022-08-15T03:54:40.522Z,69.69
2022-08-15T03:57:24.672Z,70.00
2022-08-15T04:00:12.337Z,69.97
2022-08-15T04:03:07.938Z,69.88
2022-08-15T04:05:53.114Z,69.93
2022-08-15T04:08:44.092Z,70.01
2022-08-15T04:11:43.533Z,70.17
2022-08-15T04:14:35.558Z,70.11
2022-08-15T04:17:56.952Z,70.36
2022-08-15T04:20:32.379Z,70.34
2022-08-15T04:23:23.088Z,70.35
2022-08-15T04:26:08.323Z,70.62
2022-08-15T04:28:54.318Z,70.74
2022-08-15T04:31:39.967Z,70.69
2022-08-15T04:34:47.546Z,70.96
2022-08-15T04:37:33.379Z,70.83
2022-08-15T04:41:18.651Z,70.74
2022-08-15T04:43:24.383Z,71.25
2022-08-15T04:46:12.307Z,71.13
2022-08-15T04:49:11.399Z,70.96
2022-08-15T04:51:56.342Z,71.13
2022-08-15T04:54:58.078Z,71.52
2022-08-15T04:57:55.570Z,71.33
2022-08-15T05:00:42.007Z,71.16
2022-08-15T05:03:30.923Z,71.06
2022-08-15T05:06:31.235Z,71.23
2022-08-15T05:09:21.707Z,71.47
2022-08-15T05:12:09.522Z,71.33
2022-08-15T05:14:56.499Z,71.51
2022-08-15T05:17:56.217Z,71.37
2022-08-15T05:20:44.220Z,71.32
2022-08-15T05:23:34.226Z,71.51
2022-08-15T05:26:57.147Z,70.76
2022-08-15T05:29:43.473Z,70.79
2022-08-15T05:32:26.586Z,71.58
2022-08-15T05:35:11.534Z,71.36
2022-08-15T05:37:54.805Z,71.30
2022-08-15T05:40:48.113Z,70.83
2022-08-15T05:43:54.832Z,70.85
2022-08-15T05:46:47.378Z,70.55
2022-08-15T05:49:41.457Z,70.01
2022-08-15T05:52:36.299Z,69.58
2022-08-15T05:55:28.299Z,69.51
2022-08-15T05:58:42.495Z,69.39
2022-08-15T06:01:36.194Z,69.05
2022-08-15T06:04:38.358Z,68.79
2022-08-15T06:07:56.128Z,68.66
2022-08-15T06:10:37.749Z,68.59
2022-08-15T06:13:33.490Z,68.01
2022-08-15T06:16:45.845Z,68.04
2022-08-15T06:19:34.085Z,67.81
2022-08-15T06:22:29.907Z,67.76
2022-08-15T06:25:22.231Z,67.52
2022-08-15T06:28:53.802Z,67.91
2022-08-15T06:31:39.358Z,67.04
2022-08-15T06:34:54.647Z,66.94
2022-08-15T06:38:00.674Z,66.85
2022-08-15T06:40:57.208Z,66.88
2022-08-15T06:43:42.568Z,66.09
2022-08-15T06:46:52.103Z,66.27
2022-08-15T06:49:43.038Z,66.15
2022-08-15T06:52:30.236Z,66.00
2022-08-15T06:55:15.005Z,66.06
2022-08-15T06:58:04.993Z,65.89
2022-08-15T07:01:21.059Z,65.50
2022-08-15T07:04:14.456Z,65.09
2022-08-15T07:07:05.242Z,65.23
2022-08-15T07:10:02.722Z,65.11
2022-08-15T07:13:00.316Z,65.27
2022-08-15T07:15:55.120Z,64.61
2022-08-15T07:18:43.937Z,64.96
2022-08-15T07:21:54.230Z,64.54
2022-08-15T07:24:52.457Z,64.87
2022-08-15T07:27:39.272Z,65.14
2022-08-15T07:30:30.872Z,64.60
2022-08-15T07:33:43.749Z,65.26
2022-08-15T07:36:35.081Z,64.58
2022-08-15T07:39:34.130Z,64.68
2022-08-15T07:42:28.142Z,65.02
2022-08-15T07:48:44.872Z,64.69
2022-08-15T07:51:46.066Z,64.48
2022-08-15T07:54:52.444Z,64.39
2022-08-15T07:57:57.870Z,64.26
2022-08-15T08:00:46.130Z,63.64
2022-08-15T08:03:48.274Z,63.71
2022-08-15T08:06:50.978Z,62.95
2022-08-15T08:09:44.255Z,63.02
2022-08-15T08:12:57.404Z,62.31
2022-08-15T08:15:50.553Z,62.06
2022-08-15T08:18:46.918Z,61.57
2022-08-15T08:21:39.962Z,61.64
2022-08-15T08:24:32.938Z,60.47
2022-08-15T08:27:32.807Z,60.64
2022-08-15T08:30:43.260Z,60.15
2022-08-15T08:33:42.127Z,59.73
2022-08-15T08:36:36.579Z,59.41
2022-08-15T08:39:37.868Z,58.67
2022-08-15T08:42:30.319Z,58.68
2022-08-15T08:45:33.649Z,58.40
2022-08-15T08:48:35.847Z,58.08
2022-08-15T08:51:27.524Z,58.06
2022-08-15T08:54:45.458Z,57.27
2022-08-15T08:57:35.441Z,56.92
2022-08-15T09:00:22.119Z,56.73
2022-08-15T09:03:18.536Z,56.40
2022-08-15T09:06:05.755Z,56.66
2022-08-15T09:08:54.565Z,56.20
2022-08-15T09:11:45.521Z,56.15
2022-08-15T09:14:56.855Z,56.12
2022-08-15T09:17:38.692Z,56.29
2022-08-15T09:20:43.756Z,56.22
2022-08-15T09:23:39.382Z,56.01
2022-08-15T09:26:34.855Z,55.80
2022-08-15T09:29:27.215Z,55.65
2022-08-15T09:32:32.972Z,55.26
2022-08-15T09:35:32.870Z,55.72
2022-08-15T09:38:36.945Z,55.14
2022-08-15T09:41:44.666Z,55.26
2022-08-15T09:45:06.128Z,55.28
2022-08-15T09:48:09.870Z,55.00
2022-08-15T09:51:15.520Z,54.43
2022-08-15T09:54:28.874Z,54.35
2022-08-15T09:57:24.554Z,53.23
2022-08-15T10:00:22.470Z,52.37
2022-08-15T10:03:30.102Z,51.81
2022-08-15T10:06:32.654Z,51.98
2022-08-15T10:09:27.413Z,51.28
2022-08-15T10:12:33.214Z,49.46
2022-08-15T10:15:40.750Z,48.33
2022-08-15T10:19:02.049Z,48.05
2022-08-15T10:21:46.402Z,48.59
2022-08-15T10:24:34.297Z,48.36
2022-08-15T10:27:24.920Z,47.95
2022-08-15T10:30:46.566Z,47.37
2022-08-15T10:33:34.717Z,47.66
2022-08-15T10:36:32.854Z,47.90
2022-08-15T10:39:32.344Z,47.34
2022-08-15T10:42:29.246Z,48.34
2022-08-15T10:45:19.022Z,48.20
2022-08-15T10:48:16.867Z,48.28
2022-08-15T10:51:27.072Z,48.08
2022-08-15T10:54:23.923Z,47.98
2022-08-15T10:57:23.785Z,47.47
2022-08-15T11:00:37.321Z,47.71
2022-08-15T11:03:20.284Z,47.28
2022-08-15T11:06:07.147Z,46.70
2022-08-15T11:08:54.633Z,46.66
2022-08-15T11:11:43.273Z,46.83
2022-08-15T11:14:30.954Z,46.28
2022-08-15T11:17:20.049Z,46.02
2022-08-15T11:20:14.129Z,45.67
2022-08-15T11:22:59.950Z,45.55
2022-08-15T11:25:45.854Z,45.13
2022-08-15T11:28:55.092Z,44.87
2022-08-15T11:31:43.535Z,44.68
2022-08-15T11:34:42.558Z,45.13
2022-08-15T11:37:32.975Z,44.75
2022-08-15T11:40:28.183Z,44.41
2022-08-15T11:43:17.384Z,43.96
2022-08-15T11:46:01.976Z,43.79
2022-08-15T11:49:11.427Z,43.74
2022-08-15T11:52:41.201Z,42.89
2022-08-15T11:55:14.234Z,41.32
2022-08-15T11:58:03.109Z,41.34
2022-08-15T12:00:49.526Z,40.80
2022-08-15T12:04:39.363Z,40.70
2022-08-15T12:06:51.053Z,39.30
2022-08-15T12:09:43.069Z,38.88
2022-08-15T12:12:44.619Z,37.32
2022-08-15T12:15:42.624Z,36.01
2022-08-15T12:18:49.662Z,37.04
2022-08-15T12:21:33.980Z,36.81
2022-08-15T12:24:24.625Z,37.19
2022-08-15T12:27:13.745Z,37.11
2022-08-15T12:29:58.548Z,36.04
2022-08-15T12:32:42.479Z,35.38
2022-08-15T12:35:41.849Z,35.19
2022-08-15T12:38:26.752Z,35.37
2022-08-15T12:42:47.058Z,34.46
2022-08-15T12:44:23.155Z,34.24
2022-08-15T12:47:09.326Z,33.68
2022-08-15T12:49:53.826Z,33.86
2022-08-15T12:52:38.529Z,33.88
2022-08-15T12:58:12.263Z,32.87
2022-08-15T13:01:02.756Z,32.76
2022-08-15T13:04:01.486Z,32.80
2022-08-15T13:06:55.267Z,32.72
2022-08-15T13:09:39.347Z,32.61
2022-08-15T13:12:22.801Z,32.76
2022-08-15T13:15:08.147Z,32.82
2022-08-15T13:17:53.015Z,32.62
2022-08-15T13:20:57.720Z,32.35
2022-08-15T13:24:11.241Z,31.92
2022-08-15T13:26:47.079Z,31.78
2022-08-15T13:29:33.466Z,31.53
2022-08-15T13:32:16.681Z,31.69
2022-08-15T13:35:08.085Z,30.95
2022-08-15T13:38:00.781Z,31.55
2022-08-15T13:40:55.131Z,31.97
2022-08-15T13:43:58.008Z,31.55
2022-08-15T13:46:50.506Z,31.32
2022-08-15T13:49:36.537Z,31.40
2022-08-15T13:52:35.344Z,31.76
2022-08-15T13:55:29.561Z,32.06
2022-08-15T13:58:20.439Z,31.17
2022-08-15T14:01:04.722Z,31.51
2022-08-15T14:03:49.867Z,31.61
2022-08-15T14:06:33.338Z,31.91
2022-08-15T14:09:20.895Z,31.76
2022-08-15T14:12:21.570Z,31.22
2022-08-15T14:15:06.840Z,31.82
2022-08-15T14:18:00.559Z,31.79
2022-08-15T14:20:45.994Z,32.13
2022-08-15T14:23:52.539Z,31.56
2022-08-15T14:27:11.311Z,31.97
2022-08-15T14:29:48.540Z,32.04
2022-08-15T14:35:42.773Z,32.20
2022-08-15T14:38:29.034Z,32.04
2022-08-15T14:41:12.887Z,32.60
2022-08-15T14:43:56.389Z,31.97
2022-08-15T14:46:49.513Z,32.24
2022-08-15T14:50:46.245Z,32.35
2022-08-15T14:52:35.862Z,33.10
2022-08-15T14:55:19.511Z,32.79
2022-08-15T14:58:04.816Z,32.78
2022-08-15T15:00:57.534Z,33.22
2022-08-15T15:03:43.481Z,33.69
2022-08-15T15:06:29.837Z,33.27
2022-08-15T15:09:15.037Z,32.91
2022-08-15T15:11:59.688Z,33.13
2022-08-15T15:14:44.026Z,33.13
2022-08-15T15:17:27.421Z,33.78
2022-08-15T15:20:20.899Z,33.61
2022-08-15T15:23:13.317Z,33.70
2022-08-15T15:25:56.994Z,33.30
2022-08-15T15:28:47.170Z,33.85
2022-08-15T15:31:30.658Z,33.58
2022-08-15T15:34:14.716Z,33.96
2022-08-15T15:37:04.708Z,33.64
2022-08-15T15:39:49.780Z,33.80
2022-08-15T15:42:33.979Z,33.57
2022-08-15T15:45:17.318Z,33.85
2022-08-15T15:48:03.772Z,33.64
2022-08-15T15:50:50.027Z,34.05
2022-08-15T15:53:34.654Z,34.17
2022-08-15T15:56:37.651Z,33.70
2022-08-15T15:59:20.777Z,33.45
2022-08-15T16:02:36.295Z,34.09
2022-08-15T16:05:13.187Z,33.82
2022-08-15T16:07:59.065Z,34.10
2022-08-15T16:10:49.099Z,33.60
2022-08-15T16:13:37.233Z,33.86
2022-08-15T16:16:29.521Z,34.47
2022-08-15T16:19:20.210Z,34.05
2022-08-15T16:22:08.263Z,34.39
2022-08-15T16:25:08.810Z,34.46
2022-08-15T16:27:59.570Z,34.74
2022-08-15T16:30:51.073Z,34.79
2022-08-15T16:33:42.368Z,34.81
2022-08-15T16:36:32.300Z,34.87
2022-08-15T16:39:28.216Z,35.28
2022-08-15T16:42:40.898Z,35.52
2022-08-15T16:45:24.112Z,35.75
2022-08-15T16:48:23.519Z,36.09
2022-08-15T16:51:13.428Z,35.87
2022-08-15T16:54:39.106Z,35.91
2022-08-15T16:57:31.544Z,35.94
2022-08-15T17:00:44.383Z,36.09
2022-08-15T17:03:55.797Z,35.96
2022-08-15T17:06:48.102Z,35.86
2022-08-15T17:09:55.182Z,36.17
2022-08-15T17:12:54.819Z,36.53
2022-08-15T17:15:50.018Z,36.47
2022-08-15T17:18:44.525Z,36.40
2022-08-15T17:21:38.649Z,36.59
2022-08-15T17:25:10.217Z,36.18
2022-08-15T17:28:34.877Z,36.23
2022-08-15T17:31:07.686Z,36.54
2022-08-15T17:34:03.045Z,36.69
2022-08-15T17:37:06.657Z,36.69
2022-08-15T17:39:58.098Z,36.59
2022-08-15T17:42:43.802Z,36.54
2022-08-15T17:45:49.779Z,36.72
2022-08-15T17:48:51.170Z,36.80
2022-08-15T17:51:43.404Z,36.84
2022-08-15T17:54:51.782Z,37.04
2022-08-15T17:58:01.948Z,37.20
2022-08-15T18:00:46.231Z,37.74
2022-08-15T18:03:29.771Z,37.91
2022-08-15T18:06:12.977Z,38.38
2022-08-15T18:09:01.406Z,38.51
2022-08-15T18:11:58.212Z,38.83
2022-08-15T18:14:45.946Z,38.82
2022-08-15T18:17:32.301Z,39.22
2022-08-15T18:20:27.840Z,39.38
2022-08-15T18:23:19.892Z,39.28
2022-08-15T18:26:52.529Z,39.78
2022-08-15T18:29:28.469Z,39.93
2022-08-15T18:32:21.757Z,40.11
2022-08-15T18:35:09.559Z,40.42
2022-08-15T18:38:07.802Z,40.59
2022-08-15T18:41:08.672Z,40.72
2022-08-15T18:43:59.774Z,40.67
2022-08-15T18:46:56.312Z,40.61
2022-08-15T18:49:40.185Z,40.74
2022-08-15T18:52:34.746Z,40.91
2022-08-15T18:55:22.766Z,41.24
2022-08-15T18:58:18.675Z,41.34
2022-08-15T19:01:14.779Z,41.62
2022-08-15T19:04:00.915Z,41.64
2022-08-15T19:06:52.956Z,42.35
2022-08-15T19:09:58.513Z,42.35
2022-08-15T19:12:58.537Z,42.57
2022-08-15T19:16:10.823Z,42.81
2022-08-15T19:19:08.622Z,42.76
2022-08-15T19:21:55.789Z,43.42
2022-08-15T19:24:41.022Z,43.53
2022-08-15T19:27:41.793Z,44.02
2022-08-15T19:30:31.038Z,44.05
2022-08-15T19:33:26.181Z,44.08
2022-08-15T19:36:31.972Z,44.49
2022-08-15T19:39:27.259Z,44.29
2022-08-15T19:42:33.170Z,44.62
2022-08-15T19:45:22.266Z,44.46
2022-08-15T19:48:18.250Z,45.01
2022-08-15T19:51:21.817Z,44.99
2022-08-15T19:55:22.751Z,45.15
2022-08-15T19:58:06.190Z,45.38
2022-08-15T20:00:51.432Z,45.71
2022-08-15T20:03:44.850Z,45.67
2022-08-15T20:06:40.595Z,46.22
2022-08-15T20:09:41.688Z,46.21
2022-08-15T20:12:31.857Z,46.68
2022-08-15T20:15:25.175Z,46.52
2022-08-15T20:18:28.678Z,47.16
2022-08-15T20:21:22.092Z,47.35
2022-08-15T20:24:19.589Z,47.05
2022-08-15T20:27:07.695Z,46.62
2022-08-15T20:29:58.939Z,46.62
2022-08-15T20:32:48.633Z,46.75
2022-08-15T20:35:38.367Z,46.82
2022-08-15T20:38:28.288Z,46.99
2022-08-15T20:41:19.415Z,47.25
2022-08-15T20:44:31.146Z,47.47
2022-08-15T20:47:20.177Z,47.53
2022-08-15T20:50:04.870Z,47.93
2022-08-15T20:52:58.881Z,47.98
2022-08-15T20:55:50.393Z,48.20
2022-08-15T20:59:12.855Z,48.23
2022-08-15T21:01:57.632Z,48.33
2022-08-15T21:04:41.918Z,48.58
2022-08-15T21:07:58.187Z,48.52
2022-08-15T21:10:49.975Z,48.74
2022-08-15T21:13:49.681Z,48.86
2022-08-15T21:17:00.585Z,48.66
2022-08-15T21:19:59.259Z,48.89
2022-08-15T21:22:51.233Z,48.07
2022-08-15T21:25:44.518Z,48.21
2022-08-15T21:28:35.774Z,47.86
2022-08-15T21:31:32.165Z,47.28
2022-08-15T21:34:32.246Z,47.39
2022-08-15T21:37:52.956Z,47.67
2022-08-15T21:40:54.961Z,47.75
2022-08-15T21:44:01.142Z,47.96
2022-08-15T21:47:09.013Z,48.03
2022-08-15T21:50:26.079Z,48.10
2022-08-15T21:53:28.316Z,48.09
2022-08-15T21:56:26.778Z,48.46
2022-08-15T22:00:21.105Z,48.57
2022-08-15T22:02:41.166Z,48.62
2022-08-15T22:05:29.645Z,48.79
2022-08-15T22:08:21.632Z,48.48
2022-08-15T22:11:08.576Z,49.19
2022-08-15T22:13:57.183Z,49.74
2022-08-15T22:16:45.045Z,50.44
2022-08-15T22:19:28.762Z,50.58
2022-08-15T22:22:28.921Z,51.08
2022-08-15T22:25:17.082Z,51.19
2022-08-15T22:28:02.478Z,51.23
2022-08-15T22:31:15.483Z,51.13
2022-08-15T22:33:59.994Z,51.19
2022-08-15T22:36:43.169Z,51.44
2022-08-15T22:39:42.189Z,51.83
2022-08-15T22:42:31.964Z,51.73
2022-08-15T22:45:36.264Z,51.69
2022-08-15T22:48:30.560Z,51.61
2022-08-15T22:51:24.534Z,52.08
2022-08-15T22:54:13.114Z,51.87
2022-08-15T22:57:02.280Z,51.88
2022-08-15T22:59:55.810Z,51.67
2022-08-15T23:02:42.901Z,52.18
2022-08-15T23:05:29.784Z,52.20
2022-08-15T23:08:19.199Z,52.35
2022-08-15T23:11:06.586Z,52.00
2022-08-15T23:13:59.154Z,51.88
2022-08-15T23:16:46.566Z,51.85
2022-08-15T23:19:39.107Z,51.99
2022-08-15T23:22:32.368Z,52.22
2022-08-15T23:25:19.972Z,52.04
2022-08-15T23:28:03.413Z,52.36
2022-08-15T23:30:50.535Z,52.43
2022-08-15T23:33:57.629Z,52.25
2022-08-15T23:37:01.016Z,52.36
2022-08-15T23:39:55.677Z,52.52
2022-08-15T23:42:47.429Z,52.28
2022-08-15T23:45:42.984Z,52.36
2022-08-15T23:48:29.890Z,52.24
2022-08-15T23:51:13.291Z,52.69
2022-08-15T23:53:56.668Z,52.58
2022-08-15T23:56:43.732Z,52.40
2022-08-15T23:59:34.031Z,52.70
